Time;durP1;ratioP1;P1;durP2;ratioP2;P2;SDS_P1;SDS_P2;PMS_P1;PMS_P2;Temp;Humidity;BMP_temperature;BMP_pressure;BME280_temperature;BME280_humidity;BME280_pressure;Samples;Min_cycle;Max_cycle;Signal;HPM_P1;HPM_P2
2023/09/19 00:01:40;;;;;;;3.22;1.00;;;16.80;99.90;;;;;;5029989;28;20237;-88
2023/09/19 00:04:09;;;;;;;1.42;0.68;;;16.80;99.90;;;;;;5008882;28;20184;-88
2023/09/19 00:06:37;;;;;;;1.17;0.60;;;16.80;99.90;;;;;;5009723;28;20286;-89
2023/09/19 00:09:03;;;;;;;1.50;0.73;;;16.80;99.90;;;;;;5026390;28;20206;-88
2023/09/19 00:11:29;;;;;;;1.92;0.80;;;16.80;99.90;;;;;;5002989;28;20202;-88
2023/09/19 00:13:55;;;;;;;2.20;0.70;;;16.80;99.90;;;;;;5018204;28;20674;-87
2023/09/19 00:16:21;;;;;;;1.67;0.70;;;16.70;99.90;;;;;;4994696;28;20524;-88
2023/09/19 00:18:48;;;;;;;2.95;0.63;;;16.70;99.90;;;;;;4993659;28;20184;-90
2023/09/19 00:21:15;;;;;;;2.65;0.70;;;16.70;99.90;;;;;;4994566;28;20649;-89
2023/09/19 00:23:41;;;;;;;2.85;0.70;;;16.60;99.90;;;;;;4995016;28;20215;-88
2023/09/19 00:26:07;;;;;;;1.60;0.60;;;16.60;99.90;;;;;;5013719;28;20187;-90
2023/09/19 00:28:33;;;;;;;1.85;0.75;;;16.60;99.90;;;;;;5013214;28;20193;-88
2023/09/19 00:31:01;;;;;;;2.10;0.70;;;16.60;99.90;;;;;;4990333;28;20522;-87
2023/09/19 00:33:29;;;;;;;2.55;0.80;;;16.60;99.90;;;;;;5006624;28;20192;-88
2023/09/19 00:35:57;;;;;;;2.92;0.60;;;16.50;99.90;;;;;;5003050;28;20614;-91
2023/09/19 00:38:26;;;;;;;1.30;0.77;;;16.60;99.90;;;;;;5006908;28;20246;-91
2023/09/19 00:40:54;;;;;;;1.05;0.70;;;16.50;99.90;;;;;;5011682;28;20184;-89
2023/09/19 00:43:24;;;;;;;3.35;0.68;;;16.50;99.90;;;;;;5002620;28;20262;-89
2023/09/19 00:45:51;;;;;;;1.30;0.47;;;16.50;99.90;;;;;;5014892;28;20183;-89
2023/09/19 00:48:20;;;;;;;2.50;0.60;;;16.50;99.90;;;;;;5005205;28;20182;-89
2023/09/19 00:50:47;;;;;;;1.17;0.60;;;16.60;99.90;;;;;;5007474;28;20203;-89
2023/09/19 00:53:18;;;;;;;1.90;0.70;;;16.50;99.90;;;;;;5005805;28;20199;-87
2023/09/19 00:55:46;;;;;;;1.88;0.80;;;16.50;99.90;;;;;;5033276;28;20650;-91
2023/09/19 00:58:12;;;;;;;0.95;0.80;;;16.50;99.90;;;;;;5004732;28;20654;-86
2023/09/19 01:00:39;;;;;;;0.65;0.57;;;16.50;99.90;;;;;;5006515;28;20187;-86
2023/09/19 01:03:06;;;;;;;6.90;0.90;;;16.60;99.90;;;;;;5018287;28;20266;-88
2023/09/19 01:05:34;;;;;;;1.25;0.70;;;16.60;99.90;;;;;;5013638;28;20590;-87
2023/09/19 01:07:59;;;;;;;1.92;0.90;;;16.60;99.90;;;;;;4999904;28;20198;-87
2023/09/19 01:10:25;;;;;;;1.17;0.60;;;16.60;99.90;;;;;;5017384;28;20175;-84
2023/09/19 01:13:10;;;;;;;2.05;0.90;;;16.60;99.90;;;;;;5017448;28;20226;-85
2023/09/19 01:15:36;;;;;;;2.10;0.90;;;16.50;99.90;;;;;;5016081;28;20201;-86
2023/09/19 01:18:23;;;;;;;1.60;0.75;;;16.50;99.90;;;;;;5015944;28;20218;-88
2023/09/19 01:21:23;;;;;;;2.20;0.90;;;16.40;99.90;;;;;;5016868;28;20179;-86
2023/09/19 01:23:59;;;;;;;1.13;0.73;;;16.50;99.90;;;;;;5016849;28;20659;-85
2023/09/19 01:26:51;;;;;;;1.95;1.00;;;16.40;99.90;;;;;;5009310;28;20197;-87
2023/09/19 01:29:44;;;;;;;1.50;0.80;;;16.40;99.90;;;;;;5004328;28;20271;-87
2023/09/19 01:32:13;;;;;;;1.88;0.90;;;16.40;99.90;;;;;;4995893;28;20314;-87
2023/09/19 01:34:47;;;;;;;3.55;0.90;;;16.40;99.90;;;;;;5007079;28;20192;-87
2023/09/19 01:37:14;;;;;;;1.48;0.80;;;16.40;99.90;;;;;;4996095;28;20219;-86
2023/09/19 01:39:40;;;;;;;3.00;1.00;;;16.30;99.90;;;;;;5004531;28;20234;-86
2023/09/19 01:42:22;;;;;;;2.80;1.20;;;16.30;99.90;;;;;;5007072;28;20514;-87
2023/09/19 01:44:48;;;;;;;1.58;1.00;;;16.40;99.90;;;;;;5012540;28;20238;-88
2023/09/19 01:47:30;;;;;;;3.75;1.35;;;16.40;99.90;;;;;;5015747;28;20187;-86
2023/09/19 01:50:13;;;;;;;3.83;1.40;;;16.30;99.90;;;;;;5004493;28;20546;-87
2023/09/19 01:52:48;;;;;;;2.30;1.10;;;16.30;99.90;;;;;;5014210;28;20194;-87
2023/09/19 01:55:17;;;;;;;2.35;1.40;;;16.40;99.90;;;;;;5010868;28;20189;-87
2023/09/19 01:57:55;;;;;;;1.95;1.10;;;16.40;99.90;;;;;;5031663;28;20663;-89
2023/09/19 02:00:23;;;;;;;4.13;1.40;;;16.30;99.90;;;;;;5009241;28;20198;-87
2023/09/19 02:02:50;;;;;;;2.75;1.45;;;16.30;99.90;;;;;;5014094;28;20599;-88
2023/09/19 02:05:27;;;;;;;3.90;1.40;;;16.30;99.90;;;;;;5001554;28;20188;-88
2023/09/19 02:07:54;;;;;;;4.47;1.60;;;16.30;99.90;;;;;;5004694;28;20253;-86
2023/09/19 02:10:20;;;;;;;5.07;2.13;;;16.20;99.90;;;;;;5011155;28;20186;-86
2023/09/19 02:12:46;;;;;;;1.63;1.33;;;16.30;99.90;;;;;;5013518;28;20223;-86
2023/09/19 02:15:15;;;;;;;2.30;1.40;;;16.20;99.90;;;;;;5008940;28;20187;-88
2023/09/19 02:17:42;;;;;;;2.33;1.15;;;16.30;99.90;;;;;;4997789;28;20215;-87
2023/09/19 02:20:10;;;;;;;6.05;1.50;;;16.30;99.90;;;;;;5008234;28;20186;-88
2023/09/19 02:22:36;;;;;;;3.38;1.88;;;16.30;99.90;;;;;;5016150;28;20274;-88
2023/09/19 02:25:04;;;;;;;3.40;1.30;;;16.30;99.90;;;;;;5003544;28;20206;-87
2023/09/19 02:27:30;;;;;;;2.22;1.52;;;16.20;99.90;;;;;;5002858;28;20198;-88
2023/09/19 02:29:58;;;;;;;2.70;1.45;;;16.20;99.90;;;;;;4998980;28;20187;-87
2023/09/19 02:32:24;;;;;;;5.35;1.70;;;16.20;99.90;;;;;;5016115;28;20257;-88
2023/09/19 02:34:51;;;;;;;2.83;1.50;;;16.20;99.90;;;;;;5010084;28;20607;-87
2023/09/19 02:37:19;;;;;;;2.13;1.23;;;16.10;99.90;;;;;;5008931;28;20264;-87
2023/09/19 02:39:46;;;;;;;3.42;1.70;;;16.10;99.90;;;;;;5005358;28;20239;-88
2023/09/19 02:42:11;;;;;;;3.97;1.80;;;16.10;99.90;;;;;;5008523;28;20187;-87
2023/09/19 02:44:38;;;;;;;3.33;1.77;;;16.10;99.90;;;;;;5014764;28;20206;-88
2023/09/19 02:47:04;;;;;;;3.67;1.40;;;16.10;99.90;;;;;;5003248;28;20195;-89
2023/09/19 02:49:31;;;;;;;2.65;1.48;;;16.10;99.90;;;;;;5011161;28;20673;-89
2023/09/19 02:54:32;;;;;;;3.95;1.52;;;16.10;99.90;;;;;;5174382;22;20241;-87
2023/09/19 02:56:58;;;;;;;2.55;1.30;;;16.00;99.90;;;;;;5047063;28;20214;-89
2023/09/19 02:59:24;;;;;;;8.15;1.58;;;16.00;99.90;;;;;;5041032;28;20527;-85
2023/09/19 03:01:50;;;;;;;2.40;1.42;;;16.00;99.90;;;;;;5051684;28;20185;-87
2023/09/19 03:04:19;;;;;;;4.00;1.58;;;16.00;99.90;;;;;;5048488;28;20205;-86
2023/09/19 03:06:46;;;;;;;2.28;1.27;;;15.90;99.90;;;;;;5044628;28;20186;-85
2023/09/19 03:09:11;;;;;;;2.63;1.38;;;15.90;99.90;;;;;;5045338;28;20198;-87
2023/09/19 03:11:39;;;;;;;4.15;1.48;;;15.90;99.90;;;;;;5037060;28;20188;-85
2023/09/19 03:14:10;;;;;;;5.35;1.63;;;15.90;99.90;;;;;;5049569;28;20182;-86
2023/09/19 03:16:37;;;;;;;4.35;2.00;;;15.90;99.90;;;;;;5033849;28;20182;-86
2023/09/19 03:19:03;;;;;;;3.33;1.88;;;15.90;99.90;;;;;;5053775;28;20238;-87
2023/09/19 03:21:30;;;;;;;4.72;1.88;;;15.90;99.90;;;;;;5045767;28;20186;-86
2023/09/19 03:23:56;;;;;;;4.57;1.73;;;15.90;99.90;;;;;;5042278;28;20281;-85
2023/09/19 03:26:22;;;;;;;3.88;1.70;;;15.90;99.90;;;;;;5035039;28;20213;-86
2023/09/19 03:28:47;;;;;;;5.30;1.77;;;15.90;99.90;;;;;;5035232;28;20649;-85
2023/09/19 03:31:13;;;;;;;5.45;1.90;;;15.80;99.90;;;;;;5034678;28;20180;-86
2023/09/19 03:33:39;;;;;;;3.58;1.60;;;15.80;99.90;;;;;;5039759;28;20181;-85
2023/09/19 03:36:05;;;;;;;3.17;1.80;;;15.80;99.90;;;;;;5053351;28;20616;-87
2023/09/19 03:38:32;;;;;;;4.55;1.92;;;15.80;99.90;;;;;;5054272;28;20227;-85
2023/09/19 03:40:58;;;;;;;5.88;2.03;;;15.70;99.90;;;;;;5033711;28;20187;-86
2023/09/19 03:43:24;;;;;;;4.60;2.10;;;15.70;99.90;;;;;;5033517;28;20202;-86
2023/09/19 03:45:50;;;;;;;6.03;2.42;;;15.70;99.90;;;;;;5051019;28;20235;-87
2023/09/19 03:48:17;;;;;;;6.15;2.20;;;15.70;99.90;;;;;;5038617;28;20182;-88
2023/09/19 03:50:43;;;;;;;4.82;1.90;;;15.70;99.90;;;;;;5052713;28;20563;-85
2023/09/19 03:53:09;;;;;;;4.68;2.08;;;15.70;99.90;;;;;;5048096;28;20238;-86
2023/09/19 03:55:35;;;;;;;8.20;2.47;;;15.70;99.90;;;;;;5034177;28;20200;-85
2023/09/19 03:58:02;;;;;;;6.40;2.58;;;15.70;99.90;;;;;;5040982;28;20242;-83
2023/09/19 04:00:29;;;;;;;4.75;2.22;;;15.70;99.90;;;;;;5048637;28;20677;-85
2023/09/19 04:02:56;;;;;;;9.57;2.17;;;15.70;99.90;;;;;;5025473;28;20636;-85
2023/09/19 04:05:25;;;;;;;7.88;2.47;;;15.70;99.90;;;;;;5037929;28;20251;-85
2023/09/19 04:07:51;;;;;;;5.18;2.40;;;15.70;99.90;;;;;;5032940;28;20617;-86
2023/09/19 04:10:17;;;;;;;5.22;2.40;;;15.60;99.90;;;;;;5038686;28;20235;-85
2023/09/19 04:12:56;;;;;;;11.15;2.65;;;15.70;99.90;;;;;;5051496;28;20185;-84
2023/09/19 04:15:23;;;;;;;5.32;2.65;;;15.60;99.90;;;;;;5032894;28;20178;-86
2023/09/19 04:17:52;;;;;;;6.63;2.70;;;15.60;99.90;;;;;;5038487;28;20216;-87
2023/09/19 04:20:25;;;;;;;4.97;2.58;;;15.60;99.90;;;;;;5025208;28;20182;-88
2023/09/19 04:22:51;;;;;;;6.80;2.90;;;15.60;99.90;;;;;;5050489;28;20189;-87
2023/09/19 04:25:18;;;;;;;7.10;3.20;;;15.60;99.90;;;;;;5032480;28;20685;-88
2023/09/19 04:27:44;;;;;;;7.13;3.15;;;15.60;99.90;;;;;;5048931;28;20527;-88
2023/09/19 04:30:11;;;;;;;10.35;3.40;;;15.60;99.90;;;;;;5051573;28;20217;-87
2023/09/19 04:32:40;;;;;;;9.15;3.38;;;15.60;99.90;;;;;;5052490;28;20182;-88
2023/09/19 04:35:08;;;;;;;6.47;3.33;;;15.60;99.90;;;;;;5043667;28;20602;-88
2023/09/19 04:37:39;;;;;;;7.60;3.40;;;15.60;99.90;;;;;;5045222;28;20217;-87
2023/09/19 04:40:14;;;;;;;6.93;3.30;;;15.60;99.90;;;;;;5043985;28;20539;-88
2023/09/19 04:42:41;;;;;;;8.65;3.55;;;15.50;99.90;;;;;;5020943;28;20532;-90
2023/09/19 04:45:09;;;;;;;6.80;2.95;;;15.60;99.90;;;;;;5052701;28;20182;-87
2023/09/19 04:47:36;;;;;;;8.48;3.33;;;15.60;99.90;;;;;;5037577;28;20193;-88
2023/09/19 04:50:01;;;;;;;6.53;3.20;;;15.60;99.90;;;;;;5035001;28;20221;-87
2023/09/19 04:52:30;;;;;;;6.25;3.00;;;15.60;99.90;;;;;;5042031;28;20178;-89
2023/09/19 04:54:57;;;;;;;7.40;2.97;;;15.60;99.90;;;;;;5034696;28;20194;-88
2023/09/19 04:57:25;;;;;;;6.70;2.63;;;15.60;99.90;;;;;;5034434;28;20216;-89
2023/09/19 04:59:51;;;;;;;6.90;2.95;;;15.60;99.90;;;;;;5039239;28;20183;-85
2023/09/19 05:02:17;;;;;;;4.95;2.95;;;15.60;99.90;;;;;;5056314;28;20185;-90
2023/09/19 05:04:43;;;;;;;7.00;2.72;;;15.50;99.90;;;;;;5032666;28;20229;-87
2023/09/19 05:07:10;;;;;;;8.05;2.95;;;15.50;99.90;;;;;;5056246;28;20181;-89
2023/09/19 05:09:37;;;;;;;8.40;3.20;;;15.50;99.90;;;;;;5053900;28;20190;-87
2023/09/19 05:12:03;;;;;;;6.40;3.25;;;15.50;99.90;;;;;;5041470;28;20182;-89
2023/09/19 05:14:29;;;;;;;6.35;3.22;;;15.50;99.90;;;;;;5040622;28;20291;-87
2023/09/19 05:16:55;;;;;;;5.57;3.00;;;15.50;99.90;;;;;;5051295;28;20217;-88
2023/09/19 05:19:21;;;;;;;9.30;3.80;;;15.50;99.90;;;;;;5023275;28;20273;-86
2023/09/19 05:21:47;;;;;;;7.60;3.78;;;15.50;99.90;;;;;;5048637;28;20186;-87
2023/09/19 05:24:14;;;;;;;6.97;3.72;;;15.50;99.90;;;;;;5052725;28;20193;-89
2023/09/19 05:26:40;;;;;;;10.40;3.72;;;15.50;99.90;;;;;;5043701;28;20187;-87
2023/09/19 05:29:07;;;;;;;8.63;4.00;;;15.60;99.90;;;;;;5034469;28;20590;-86
2023/09/19 05:31:36;;;;;;;5.90;3.63;;;15.60;99.90;;;;;;5045576;28;20178;-88
2023/09/19 05:34:02;;;;;;;7.72;3.55;;;15.60;99.90;;;;;;5057064;28;20178;-84
2023/09/19 05:36:29;;;;;;;6.50;3.42;;;15.60;99.90;;;;;;5035882;28;20269;-87
2023/09/19 05:38:55;;;;;;;7.55;4.10;;;15.50;99.90;;;;;;5035730;28;20186;-85
2023/09/19 05:41:21;;;;;;;8.20;3.80;;;15.50;99.90;;;;;;5036051;28;20183;-86
2023/09/19 05:43:50;;;;;;;7.32;3.70;;;15.50;99.90;;;;;;5037161;28;20178;-87
2023/09/19 05:46:16;;;;;;;11.40;4.10;;;15.50;99.90;;;;;;5035948;28;20179;-86
2023/09/19 05:48:43;;;;;;;9.73;3.85;;;15.40;99.90;;;;;;5036129;28;20171;-87
2023/09/19 05:51:09;;;;;;;8.50;3.97;;;15.40;99.90;;;;;;5035438;28;20179;-87
2023/09/19 05:53:35;;;;;;;11.60;3.85;;;15.40;99.90;;;;;;5034641;28;20270;-86
2023/09/19 05:56:01;;;;;;;9.45;3.83;;;15.40;99.90;;;;;;5037517;28;20179;-85
2023/09/19 05:58:27;;;;;;;8.20;4.07;;;15.40;99.90;;;;;;5035555;28;20673;-87
2023/09/19 06:00:53;;;;;;;8.95;3.97;;;15.40;99.90;;;;;;5034952;28;20614;-86
2023/09/19 06:03:20;;;;;;;11.10;3.95;;;15.40;99.90;;;;;;5026845;28;20179;-84
2023/09/19 06:05:49;;;;;;;6.68;3.50;;;15.40;99.90;;;;;;5036350;28;20273;-88
2023/09/19 06:08:15;;;;;;;6.22;3.55;;;15.40;99.90;;;;;;5053432;28;20647;-88
2023/09/19 06:10:40;;;;;;;7.63;3.97;;;15.30;99.90;;;;;;5035353;28;20199;-87
2023/09/19 06:13:09;;;;;;;11.10;3.53;;;15.40;99.90;;;;;;5036804;28;20174;-87
2023/09/19 06:15:35;;;;;;;7.93;3.58;;;15.40;99.90;;;;;;5035343;28;20210;-88
2023/09/19 06:18:04;;;;;;;11.85;3.53;;;15.30;99.90;;;;;;5035063;28;20661;-87
2023/09/19 06:20:31;;;;;;;7.63;3.42;;;15.40;99.90;;;;;;5035136;28;20266;-86
2023/09/19 06:22:57;;;;;;;11.27;3.65;;;15.40;99.90;;;;;;5035610;28;20182;-84
2023/09/19 06:25:23;;;;;;;6.30;3.33;;;15.40;99.90;;;;;;5036591;28;20175;-85
2023/09/19 06:27:52;;;;;;;7.28;3.10;;;15.50;99.90;;;;;;5035288;28;20178;-83
2023/09/19 06:30:17;;;;;;;7.30;3.40;;;15.60;99.90;;;;;;5035320;28;20197;-84
2023/09/19 06:32:44;;;;;;;11.00;3.20;;;15.70;99.90;;;;;;5035353;28;20613;-85
2023/09/19 06:35:13;;;;;;;9.90;3.08;;;15.80;99.90;;;;;;5035126;28;20625;-86
2023/09/19 06:37:40;;;;;;;5.50;3.10;;;15.80;99.90;;;;;;5035057;28;20237;-86
2023/09/19 06:40:14;;;;;;;7.72;3.00;;;15.80;99.90;;;;;;5034830;28;20209;-84
2023/09/19 06:42:52;;;;;;;9.32;3.50;;;16.00;99.90;;;;;;5036174;28;20163;-84
2023/09/19 06:45:18;;;;;;;7.35;3.50;;;16.10;99.90;;;;;;5034949;28;20178;-85
2023/09/19 06:47:51;;;;;;;6.53;2.90;;;16.20;99.90;;;;;;5034784;28;20185;-85
2023/09/19 06:50:22;;;;;;;10.05;3.38;;;16.10;99.90;;;;;;5034133;28;20181;-86
2023/09/19 06:52:51;;;;;;;10.30;3.50;;;16.00;99.90;;;;;;5051474;28;20631;-84
2023/09/19 06:55:19;;;;;;;11.65;3.30;;;15.90;99.90;;;;;;5051325;28;20205;-85
2023/09/19 06:57:46;;;;;;;6.20;3.17;;;16.00;99.90;;;;;;5051234;28;20245;-86
2023/09/19 07:00:15;;;;;;;8.23;3.33;;;16.00;99.90;;;;;;5036275;28;20166;-87
2023/09/19 07:02:45;;;;;;;9.40;3.67;;;16.10;99.90;;;;;;5034553;28;20182;-85
2023/09/19 07:05:11;;;;;;;11.15;3.50;;;16.10;99.90;;;;;;5036247;28;20175;-86
2023/09/19 07:07:36;;;;;;;8.63;3.95;;;16.10;99.90;;;;;;5034618;28;20174;-86
2023/09/19 07:10:05;;;;;;;11.52;3.53;;;16.10;99.90;;;;;;5034658;28;20255;-85
2023/09/19 07:12:32;;;;;;;10.20;3.35;;;16.20;99.90;;;;;;5034165;28;20325;-87
2023/09/19 07:14:58;;;;;;;10.85;3.53;;;16.20;99.90;;;;;;5034642;28;20186;-86
2023/09/19 07:17:24;;;;;;;9.20;3.42;;;16.20;99.90;;;;;;5034213;28;20210;-87
2023/09/19 07:19:50;;;;;;;12.93;3.30;;;16.20;99.90;;;;;;5034807;28;20167;-86
2023/09/19 07:22:16;;;;;;;16.33;3.80;;;16.30;99.90;;;;;;5033269;28;20225;-86
2023/09/19 07:24:42;;;;;;;12.32;3.30;;;16.30;99.90;;;;;;5031340;28;20181;-86
2023/09/19 07:27:08;;;;;;;10.63;3.40;;;16.40;99.90;;;;;;5048055;28;20174;-87
2023/09/19 07:29:34;;;;;;;11.98;3.40;;;16.40;99.90;;;;;;5034299;28;20179;-87
2023/09/19 07:32:00;;;;;;;11.02;3.53;;;16.40;99.90;;;;;;5033557;28;20696;-86
2023/09/19 07:34:26;;;;;;;14.10;3.63;;;16.40;99.90;;;;;;5034557;28;20233;-87
2023/09/19 07:36:51;;;;;;;7.93;3.05;;;16.40;99.90;;;;;;5034536;28;20217;-86
2023/09/19 07:39:17;;;;;;;10.55;3.20;;;16.40;99.90;;;;;;5034697;28;20601;-86
2023/09/19 07:41:43;;;;;;;12.27;3.38;;;16.40;99.90;;;;;;5034371;28;20183;-86
2023/09/19 07:44:10;;;;;;;9.80;2.97;;;16.50;99.90;;;;;;5035900;28;20540;-85
2023/09/19 07:46:36;;;;;;;15.23;3.33;;;16.50;99.90;;;;;;5035200;28;20183;-87
2023/09/19 07:49:01;;;;;;;9.85;3.42;;;16.50;99.90;;;;;;5034200;28;20183;-86
2023/09/19 07:51:27;;;;;;;9.77;3.28;;;16.50;99.90;;;;;;5035395;28;20174;-85
2023/09/19 07:53:54;;;;;;;11.43;3.60;;;16.60;99.90;;;;;;5033719;28;20811;-87
2023/09/19 07:56:20;;;;;;;14.50;3.55;;;16.60;99.90;;;;;;5035451;28;20174;-85
2023/09/19 07:58:46;;;;;;;16.55;3.88;;;16.60;99.90;;;;;;5034162;28;20529;-84
2023/09/19 08:01:13;;;;;;;11.80;3.50;;;16.70;99.90;;;;;;5033761;28;20224;-85
2023/09/19 08:03:40;;;;;;;13.57;3.50;;;16.70;99.90;;;;;;5033736;28;20182;-87
2023/09/19 08:06:10;;;;;;;8.18;2.63;;;16.80;99.90;;;;;;5034070;28;20183;-86
2023/09/19 08:08:39;;;;;;;11.48;3.00;;;16.80;99.90;;;;;;5034852;28;20174;-85
2023/09/19 08:11:11;;;;;;;11.00;2.90;;;16.80;99.90;;;;;;5035033;28;20224;-86
2023/09/19 08:13:43;;;;;;;9.32;3.15;;;16.80;99.90;;;;;;5033782;28;20562;-87
2023/09/19 08:16:10;;;;;;;7.70;2.80;;;16.80;99.90;;;;;;5033616;28;20255;-87
2023/09/19 08:18:39;;;;;;;9.93;2.70;;;16.80;99.90;;;;;;5034745;28;20289;-87
2023/09/19 08:21:08;;;;;;;8.15;2.00;;;16.80;99.90;;;;;;5034766;28;20175;-86
2023/09/19 08:23:33;;;;;;;10.30;2.60;;;16.80;99.90;;;;;;5035005;28;20182;-87
2023/09/19 08:26:02;;;;;;;9.52;2.03;;;16.90;99.90;;;;;;5034793;28;20197;-86
2023/09/19 08:28:29;;;;;;;10.75;2.25;;;16.90;99.90;;;;;;5033013;28;20178;-84
2023/09/19 08:30:55;;;;;;;12.25;2.63;;;17.00;99.90;;;;;;5033308;28;20267;-85
2023/09/19 08:33:21;;;;;;;12.90;2.30;;;16.90;99.90;;;;;;5034431;28;20179;-84
2023/09/19 08:35:47;;;;;;;7.57;2.13;;;17.00;99.90;;;;;;5032000;28;20575;-84
2023/09/19 08:38:14;;;;;;;10.02;2.50;;;17.10;99.90;;;;;;5033443;28;20217;-85
2023/09/19 08:40:42;;;;;;;11.13;2.30;;;17.20;99.90;;;;;;5033252;28;20174;-85
2023/09/19 08:43:08;;;;;;;9.55;2.30;;;17.20;99.90;;;;;;5033350;28;20229;-84
2023/09/19 08:45:34;;;;;;;7.28;2.00;;;17.30;99.90;;;;;;5032966;28;20236;-85
2023/09/19 08:48:24;;;;;;;7.47;2.20;;;17.30;99.90;;;;;;5033038;28;20229;-85
2023/09/19 08:51:07;;;;;;;8.80;2.08;;;17.30;99.90;;;;;;5035843;28;20170;-86
2023/09/19 08:53:50;;;;;;;9.75;2.15;;;17.40;99.90;;;;;;5033360;28;20284;-84
2023/09/19 08:56:18;;;;;;;8.73;2.38;;;17.50;99.90;;;;;;5034175;28;20561;-85
2023/09/19 08:58:53;;;;;;;7.15;2.03;;;17.50;99.90;;;;;;5033553;28;20234;-86
2023/09/19 09:01:24;;;;;;;9.23;2.15;;;17.50;99.90;;;;;;5032429;28;20512;-84
2023/09/19 09:03:55;;;;;;;8.57;1.98;;;17.40;99.90;;;;;;5032574;28;20518;-84
2023/09/19 09:06:21;;;;;;;10.45;2.20;;;17.40;99.90;;;;;;5034730;28;20240;-83
2023/09/19 09:08:47;;;;;;;8.48;2.30;;;17.40;99.90;;;;;;5036775;28;20186;-86
2023/09/19 09:11:14;;;;;;;11.35;2.45;;;17.50;99.90;;;;;;5036823;28;20261;-88
2023/09/19 09:13:42;;;;;;;11.60;2.10;;;17.60;99.90;;;;;;5036330;28;20186;-87
2023/09/19 09:16:09;;;;;;;8.23;2.42;;;17.60;99.90;;;;;;5036826;28;20229;-86
2023/09/19 09:18:37;;;;;;;6.72;2.00;;;17.60;99.90;;;;;;5036728;28;20214;-88
2023/09/19 09:21:04;;;;;;;10.38;2.05;;;17.60;99.90;;;;;;5036546;28;20197;-86
2023/09/19 09:23:32;;;;;;;9.38;2.08;;;17.60;99.90;;;;;;5036775;28;20179;-88
2023/09/19 09:26:02;;;;;;;9.98;2.20;;;17.50;99.90;;;;;;5036401;28;20174;-84
2023/09/19 09:28:30;;;;;;;7.88;1.92;;;17.60;99.90;;;;;;5037594;28;20609;-88
2023/09/19 09:31:07;;;;;;;11.95;2.38;;;17.60;99.90;;;;;;5036369;28;20193;-82
2023/09/19 09:33:34;;;;;;;10.05;2.60;;;17.60;99.90;;;;;;5036112;28;20174;-85
2023/09/19 09:36:02;;;;;;;12.43;2.33;;;17.70;99.90;;;;;;5037016;28;20264;-87
2023/09/19 09:38:43;;;;;;;9.57;2.00;;;17.80;99.90;;;;;;5036430;28;20205;-84
2023/09/19 09:41:09;;;;;;;6.90;1.73;;;17.80;99.90;;;;;;5052723;28;20182;-83
2023/09/19 09:43:38;;;;;;;4.32;1.73;;;17.70;99.90;;;;;;5037045;28;20179;-84
2023/09/19 09:51:45;;;;;;;10.32;2.08;;;17.80;99.90;;;;;;5036572;28;20228;-85
2023/09/19 09:54:12;;;;;;;7.03;1.70;;;18.00;99.90;;;;;;5052208;28;20234;-83
2023/09/19 09:57:13;;;;;;;6.22;1.88;;;18.00;99.90;;;;;;5052394;28;20231;-86
2023/09/19 10:02:41;;;;;;;6.07;1.58;;;18.10;99.90;;;;;;5036935;28;20163;-82
2023/09/19 10:05:28;;;;;;;8.27;1.75;;;18.10;99.90;;;;;;5048796;28;20186;-83
2023/09/19 10:08:08;;;;;;;8.50;1.73;;;18.10;99.90;;;;;;5036715;28;20590;-84
2023/09/19 10:13:07;;;;;;;7.07;1.95;;;18.20;99.90;;;;;;5036731;28;20198;-86
2023/09/19 10:15:35;;;;;;;6.50;1.67;;;18.20;99.90;;;;;;5035228;28;20682;-85
2023/09/19 10:18:05;;;;;;;6.88;1.70;;;18.30;99.90;;;;;;5035602;28;20195;-86
2023/09/19 10:20:37;;;;;;;6.63;1.98;;;18.40;99.90;;;;;;5035201;28;20171;-85
2023/09/19 10:23:12;;;;;;;9.10;1.98;;;18.50;99.90;;;;;;5035589;28;20548;-83
2023/09/19 10:25:42;;;;;;;9.07;1.80;;;18.40;99.90;;;;;;5035121;28;20174;-84
2023/09/19 10:28:13;;;;;;;8.48;1.70;;;18.30;99.90;;;;;;5036018;28;20163;-85
2023/09/19 10:30:47;;;;;;;6.35;2.00;;;18.20;99.90;;;;;;5035277;28;20175;-85
2023/09/19 10:33:19;;;;;;;4.68;1.80;;;18.20;99.90;;;;;;5034612;28;20878;-88
2023/09/19 10:35:47;;;;;;;8.90;1.75;;;18.10;99.90;;;;;;5035088;28;20187;-84
2023/09/19 10:38:18;;;;;;;11.40;2.17;;;18.10;99.90;;;;;;5035831;28;20213;-85
2023/09/19 10:40:47;;;;;;;3.97;1.77;;;18.10;99.90;;;;;;5034895;28;20217;-85
2023/09/19 10:43:18;;;;;;;5.90;1.60;;;18.20;99.90;;;;;;5035151;28;20526;-85
2023/09/19 10:45:45;;;;;;;7.97;1.90;;;18.20;99.90;;;;;;5036044;28;20194;-86
2023/09/19 10:48:12;;;;;;;5.47;1.85;;;18.30;99.90;;;;;;5036022;28;20178;-87
2023/09/19 10:51:04;;;;;;;8.85;1.77;;;18.30;99.90;;;;;;5034375;28;20286;-84
2023/09/19 10:53:42;;;;;;;6.97;1.75;;;18.30;99.90;;;;;;5034048;28;20308;-87
2023/09/19 10:56:17;;;;;;;9.80;2.05;;;18.30;99.90;;;;;;5034522;28;20194;-88
2023/09/19 10:58:44;;;;;;;8.48;1.52;;;18.40;99.90;;;;;;5035595;28;20194;-86
2023/09/19 11:01:15;;;;;;;7.85;1.88;;;18.30;99.90;;;;;;5033881;28;20174;-84
2023/09/19 11:03:44;;;;;;;5.68;2.05;;;18.30;99.90;;;;;;5034847;28;20178;-85
2023/09/19 11:06:18;;;;;;;6.32;1.90;;;18.40;99.90;;;;;;5033940;28;20183;-83
2023/09/19 11:09:26;;;;;;;6.82;1.90;;;18.40;99.90;;;;;;5034218;28;20200;-84
2023/09/19 11:11:52;;;;;;;8.00;1.88;;;18.40;99.90;;;;;;5035216;28;20187;-87
2023/09/19 11:14:24;;;;;;;5.22;1.38;;;18.30;99.90;;;;;;5034227;28;20627;-86
2023/09/19 11:17:10;;;;;;;9.55;2.10;;;18.30;99.90;;;;;;5035065;28;20178;-86
2023/09/19 11:20:16;;;;;;;5.85;1.98;;;18.30;99.90;;;;;;5034225;28;20190;-84
2023/09/19 11:22:53;;;;;;;11.18;2.15;;;18.40;99.90;;;;;;5035708;28;20162;-84
2023/09/19 11:25:32;;;;;;;9.75;1.77;;;18.50;99.90;;;;;;5033921;28;20185;-84
2023/09/19 11:28:17;;;;;;;6.03;1.80;;;18.60;99.90;;;;;;5034156;28;20176;-86
2023/09/19 11:30:45;;;;;;;7.43;1.88;;;18.70;99.90;;;;;;5033506;28;20189;-87
2023/09/19 11:33:33;;;;;;;7.70;2.15;;;18.70;99.90;;;;;;5033346;28;20228;-87
2023/09/19 11:36:12;;;;;;;7.10;2.30;;;18.70;99.90;;;;;;5032423;28;20197;-84
2023/09/19 11:38:49;;;;;;;7.15;2.47;;;18.90;99.90;;;;;;5033356;28;20206;-85
2023/09/19 11:41:25;;;;;;;9.10;2.08;;;18.90;99.90;;;;;;5033037;28;20274;-88
2023/09/19 11:43:51;;;;;;;7.03;1.75;;;18.80;99.90;;;;;;5032262;28;20185;-85
2023/09/19 11:46:21;;;;;;;10.35;1.85;;;18.70;99.90;;;;;;5033320;28;20182;-82
2023/09/19 11:48:51;;;;;;;9.57;2.28;;;18.70;99.90;;;;;;5033604;28;20171;-83
2023/09/19 11:51:19;;;;;;;10.18;2.13;;;18.70;99.90;;;;;;5031437;28;20206;-84
2023/09/19 11:53:52;;;;;;;8.70;2.03;;;18.80;99.90;;;;;;5033108;28;20230;-82
2023/09/19 11:56:24;;;;;;;7.93;2.03;;;18.80;99.90;;;;;;5034642;28;20482;-87
2023/09/19 11:58:55;;;;;;;6.18;2.00;;;18.80;99.90;;;;;;5032940;28;20659;-86
2023/09/19 12:01:28;;;;;;;7.38;1.77;;;18.70;99.90;;;;;;5032913;28;20174;-85
2023/09/19 12:03:59;;;;;;;6.70;1.85;;;18.80;99.90;;;;;;5033043;28;20166;-85
2023/09/19 12:06:26;;;;;;;7.40;2.13;;;18.90;99.90;;;;;;5033111;28;20269;-85
2023/09/19 12:08:57;;;;;;;5.53;1.70;;;18.90;99.90;;;;;;5032660;28;20186;-88
2023/09/19 12:11:24;;;;;;;8.25;1.77;;;19.00;99.90;;;;;;5033104;28;20175;-86
2023/09/19 12:13:52;;;;;;;5.00;1.80;;;19.00;99.90;;;;;;5033009;28;20181;-86
2023/09/19 12:16:22;;;;;;;7.07;2.15;;;19.10;99.90;;;;;;5032830;28;20182;-85
2023/09/19 12:18:50;;;;;;;6.88;2.15;;;19.20;99.90;;;;;;5032853;28;20360;-85
2023/09/19 12:21:27;;;;;;;9.93;2.70;;;19.30;99.90;;;;;;5032447;28;20174;-86
2023/09/19 12:24:06;;;;;;;8.95;2.28;;;19.30;99.90;;;;;;5032197;28;20197;-88
2023/09/19 12:26:43;;;;;;;8.80;2.67;;;19.30;99.90;;;;;;5032953;28;20171;-85
2023/09/19 12:29:17;;;;;;;7.53;2.05;;;19.20;99.90;;;;;;5034181;28;20167;-87
2023/09/19 12:32:00;;;;;;;10.77;2.70;;;19.20;99.90;;;;;;5034403;28;20166;-87
2023/09/19 12:34:34;;;;;;;8.07;2.67;;;19.40;99.90;;;;;;5033221;28;20179;-88
2023/09/19 12:37:20;;;;;;;5.88;1.92;;;19.50;99.90;;;;;;5032465;28;20173;-86
2023/09/19 12:39:50;;;;;;;8.90;1.92;;;19.40;99.90;;;;;;5035293;28;20274;-87
2023/09/19 12:42:19;;;;;;;6.20;1.88;;;19.50;99.90;;;;;;5049585;28;20181;-86
2023/09/19 12:44:47;;;;;;;7.65;2.22;;;19.50;99.90;;;;;;5060677;28;20170;-87
2023/09/19 12:47:23;;;;;;;7.00;2.08;;;19.50;99.90;;;;;;5046997;28;20197;-86
2023/09/19 12:50:19;;;;;;;7.43;2.33;;;19.50;99.90;;;;;;5039256;28;20227;-84
2023/09/19 12:52:48;;;;;;;5.45;2.20;;;19.60;99.90;;;;;;5037473;28;20571;-86
2023/09/19 12:55:28;;;;;;;7.95;2.25;;;19.40;99.90;;;;;;5039360;28;20626;-88
2023/09/19 12:58:12;;;;;;;6.90;2.28;;;19.30;99.90;;;;;;5040345;28;20213;-86
2023/09/19 13:00:42;;;;;;;5.70;1.83;;;19.30;99.90;;;;;;5039214;28;20178;-88
2023/09/19 13:03:25;;;;;;;7.38;2.55;;;19.30;99.90;;;;;;5039921;28;20166;-86
2023/09/19 13:06:04;;;;;;;5.45;1.80;;;19.30;99.90;;;;;;5038723;28;20178;-86
2023/09/19 13:08:38;;;;;;;8.50;2.30;;;19.40;99.90;;;;;;5038954;28;20509;-86
2023/09/19 13:11:17;;;;;;;8.10;2.28;;;19.40;99.90;;;;;;5040343;28;20568;-87
2023/09/19 13:13:49;;;;;;;10.15;2.13;;;19.50;99.90;;;;;;5037878;28;20613;-85